Flight Track Log - Related Links

Times and Time Zones

All times are in EDT time to prevent confusion due to time zone crossing. See the RPA3436 flight status page for this flight to view local times or setup timezone preferences in your user account.


Time Position Orientation Groundspeed Altitude Reporting Facility
EDT Latitude Longitude Course Direction KTS MPH feet Rate Location/Type
Wed 10:58:00 AM 33.2621 -79.9243 North  Level FlightAware Approximate
Wed 10:59:00 AM 33.3549 -79.8892 23° Northeast  Level FlightAware Approximate
Wed 11:00:00 AM 33.4507 -79.8665 13° North  Level FlightAware Approximate
Wed 11:01:00 AM 33.5460 -79.8393 13° North  Level FlightAware Approximate
Wed 11:02:00 AM 33.6413 -79.8120 13° North  Level FlightAware Approximate
Wed 11:03:00 AM 33.7371 -79.7923 17° North  Level FlightAware Approximate
Wed 11:04:00 AM 33.8307 -79.7573 17° North  Level FlightAware Approximate
Wed 11:05:00 AM 33.9013 -79.6800 43° Northeast  Level FlightAware Approximate
Wed 11:06:00 AM 33.9734 -79.6000 43° Northeast  Level FlightAware Approximate
Wed 11:07:00 AM 34.0451 -79.5196 44° Northeast  Level FlightAware Approximate
Wed 11:08:00 AM 34.1156 -79.4374 44° Northeast  Level FlightAware Approximate
Wed 11:09:00 AM 34.1751 -79.3499 59° Northeast  Level FlightAware Approximate
Wed 11:10:00 AM 34.2465 -79.2702 40° Northeast  Level FlightAware Approximate
Wed 11:11:00 AM 34.3330 -79.2148 27° Northeast  Level FlightAware Approximate
Wed 11:12:00 AM 34.4213 -79.1636 29° Northeast  Level FlightAware Approximate
Wed 11:13:00 AM 34.5077 -79.1077 27° Northeast  Level FlightAware Approximate
Wed 11:14:00 AM 34.5948 -79.0532 27° Northeast  Level FlightAware Approximate
Wed 11:15:00 AM 34.6832 -79.0018 25° Northeast  Level FlightAware Approximate
Wed 11:16:00 AM 34.7716 -78.9504 26° Northeast  Level FlightAware Approximate
Wed 11:17:00 AM 34.8600 -78.8990 26° Northeast  Level FlightAware Approximate
Wed 11:18:00 AM 34.9483 -78.8474 26° Northeast  Level FlightAware Approximate
Wed 11:19:00 AM 35.0367 -78.7957 26° Northeast  Level FlightAware Approximate
Wed 11:20:00 AM 35.1250 -78.7439 26° Northeast  Level FlightAware Approximate
Wed 11:21:00 AM 35.2133 -78.6920 26° Northeast  Level FlightAware Approximate
Wed 11:22:00 AM 35.3016 -78.6399 26° Northeast  Level FlightAware Approximate
Wed 11:23:00 AM 35.3898 -78.5878 26° Northeast  Level FlightAware Approximate
Wed 11:24:00 AM 35.4781 -78.5355 26° Northeast  Level FlightAware Approximate
Wed 11:25:00 AM 35.5663 -78.4832 26° Northeast  Level FlightAware Approximate
Wed 11:26:00 AM 35.6545 -78.4308 25° Northeast  Level FlightAware Approximate
Wed 11:27:00 AM 35.7434 -78.3801 25° Northeast  Level FlightAware Approximate
Wed 11:28:00 AM 35.8322 -78.3293 25° Northeast  Level FlightAware Approximate
Wed 11:29:00 AM 35.9209 -78.2778 26° Northeast  Level FlightAware Approximate
Wed 11:30:00 AM 36.0093 -78.2257 26° Northeast  Level FlightAware Approximate
Wed 11:31:00 AM 36.0977 -78.1734 26° Northeast  Level FlightAware Approximate
Wed 11:32:00 AM 36.1861 -78.1210 26° Northeast  Level FlightAware Approximate
Wed 11:33:00 AM 36.2744 -78.0685 26° Northeast  Level FlightAware Approximate
Wed 11:34:00 AM 36.3601 -78.0109 25° Northeast  Level FlightAware Approximate
Wed 11:35:00 AM 36.4492 -77.9600 25° Northeast  Level FlightAware Approximate
Wed 11:36:00 AM 36.5371 -77.9063 27° Northeast  Level FlightAware Approximate
Wed 11:37:00 AM 36.6247 -77.8518 27° Northeast  Level FlightAware Approximate
Wed 11:38:00 AM 36.7123 -77.7971 27° Northeast  Level FlightAware Approximate
Wed 11:39:00 AM 36.7999 -77.7423 27° Northeast  Level FlightAware Approximate
Wed 11:40:00 AM 36.8875 -77.6874 27° Northeast  Level FlightAware Approximate
Wed 11:41:00 AM 36.9750 -77.6324 27° Northeast  Level FlightAware Approximate
Wed 11:42:00 AM 37.0630 -77.5785 26° Northeast  Level FlightAware Approximate
Wed 11:43:00 AM 37.1512 -77.5249 26° Northeast  Level FlightAware Approximate
Wed 11:44:00 AM 37.2393 -77.4713 26° Northeast  Level FlightAware Approximate
Wed 11:45:00 AM 37.3275 -77.4175 26° Northeast  Level FlightAware Approximate
Wed 11:46:00 AM 37.4166 -77.3667 22° Northeast  Level FlightAware Approximate
Wed 11:47:00 AM 37.5036 -77.3158 11° North  Level FlightAware Approximate
Wed 11:48:00 AM 37.5997 -77.2918 11° North  Level FlightAware Approximate
Wed 11:49:00 AM 37.6958 -77.2678 11° North  Level FlightAware Approximate
Wed 11:50:00 AM 37.7923 -77.2484 North  Level FlightAware Approximate
Wed 11:51:00 AM 37.8893 -77.2308 North  Level FlightAware Approximate
Wed 11:52:00 AM 37.9862 -77.2123 10° North  Level FlightAware Approximate
Wed 11:53:00 AM 38.0827 -77.1909 10° North  Level FlightAware Approximate
Wed 11:54:00 AM 38.1789 -77.1678 11° North  Level FlightAware Approximate
Wed 11:55:00 AM 38.2723 -77.1500 North  Level FlightAware Approximate
Wed 11:56:00 AM 38.3693 -77.1368 11° North  Level FlightAware Approximate
Wed 11:57:00 AM 38.4650 -77.1129 11° North  Level FlightAware Approximate
Wed 11:58:00 AM 38.5605 -77.0854 15° North  Level FlightAware Approximate
Wed 11:59:00 AM 38.6558 -77.0667 North  Level FlightAware Approximate
Wed 12:00:00 PM 38.7528 -77.0535 11° North  Level FlightAware Approximate
Wed 12:01:00 PM 38.8495 -77.0334 North  Level FlightAware Approximate

Login

Don't have an account? Register now (free) for customized features, flight alerts, and more!